• Join FlightAware (Why Join?)
  • Login
  • US Flag 
05:31AM EDT


 

Airport Tracker/Info


-or-


 

Live Flight TrackerFlight Track Log ✈ AWE3397 ✈ 18-Jul-2013 ✈ KPHL - KMSY

Flight Track Log - Related Links

Times and Time Zones

All times are in EDT time to prevent confusion due to time zone crossing. See the AWE3397 flight status page for this flight to view local times or setup timezone preferences in your user account.

Time Position Orientation Groundspeed Altitude Reporting Facility
EDT Latitude Longitude Course Direction KTS MPH feet Rate Location/Type
08:24AM 39.8667 -75.2833 243° Southwest 158 182 700  Level Philadelphia TRACON
08:25AM 39.8333 -75.3667 243° Southwest 227 261 2,600 1,680 Climbing Philadelphia TRACON
08:26AM 39.8333 -75.4500 270° West 270 311 4,500 2,220 Climbing Philadelphia TRACON
08:28AM 39.8336 -75.6450 270° West 294 338 9,600 2,160 Climbing New York Center
08:29AM 39.8367 -75.7669 272° West 294 338 11,400 1,920 Climbing New York Center
08:30AM 39.8319 -75.8800 267° West 308 354 13,400 1,920 Climbing New York Center
08:31AM 39.8189 -75.9872 261° West 321 369 15,300 1,740 Climbing New York Center
08:32AM 39.8031 -76.1078 260° West 339 390 16,900 1,500 Climbing New York Center
08:33AM 39.7767 -76.2300 254° West 355 409 18,400 1,500 Climbing New York Center
08:34AM 39.7267 -76.3611 244° Southwest 367 422 20,000 1,320 Climbing New York Center
08:35AM 39.6875 -76.4678 245° Southwest 368 423 21,200 1,200 Climbing Washington Center
08:36AM 39.6344 -76.6047 243° Southwest 369 425 22,500 1,260 Climbing Washington Center
08:37AM 39.5875 -76.7306 244° Southwest 380 437 23,800 1,200 Climbing Washington Center
08:38AM 39.5425 -76.8564 245° Southwest 386 444 24,900 1,080 Climbing Washington Center
08:39AM 39.4869 -76.9844 241° Southwest 391 450 26,100 1,200 Climbing Washington Center
08:40AM 39.4003 -77.0794 220° Southwest 396 456 27,400 1,260 Climbing Washington Center
08:41AM 39.3114 -77.1742 220° Southwest 407 468 28,600 1,080 Climbing Washington Center
08:42AM 39.2186 -77.2686 218° Southwest 419 482 29,600 1,080 Climbing Washington Center
08:43AM 39.1256 -77.3656 219° Southwest 429 494 30,800 1,020 Climbing Washington Center
08:44AM 39.0322 -77.4622 219° Southwest 429 494 31,700 1,020 Climbing Washington Center
08:45AM 38.9328 -77.5636 218° Southwest 442 509 32,900 960 Climbing Washington Center
08:46AM 38.8558 -77.6628 225° Southwest 448 516 33,700 540 Climbing Washington Center
08:47AM 38.7725 -77.7858 229° Southwest 453 521 34,000 120 Climbing Washington Center
08:48AM 38.6953 -77.9058 231° Southwest 453 521 34,000  Level Washington Center
08:49AM 38.6200 -78.0231 231° Southwest 443 510 34,000  Level Washington Center
08:50AM 38.5444 -78.1400 230° Southwest 438 504 34,000  Level Washington Center
08:51AM 38.4689 -78.2567 230° Southwest 438 504 34,000  Level Washington Center
08:52AM 38.3933 -78.3706 230° Southwest 438 504 34,000  Level Washington Center
08:53AM 38.3156 -78.4867 230° Southwest 443 510 34,000  Level Washington Center
08:54AM 38.2417 -78.6056 232° Southwest 438 504 34,000  Level Washington Center
08:55AM 38.1636 -78.7214 229° Southwest 438 504 34,000  Level Washington Center
08:56AM 38.0811 -78.8472 230° Southwest 443 510 34,000  Level Washington Center
08:57AM 38.0028 -78.9622 229° Southwest 443 510 34,000  Level Washington Center
08:58AM 37.9264 -79.0825 231° Southwest 443 510 34,000  Level Washington Center
08:59AM 37.8644 -79.2086 238° Southwest 436 502 34,000  Level Washington Center
09:00AM 37.8086 -79.3242 239° Southwest 431 496 34,000  Level Washington Center
09:01AM 37.7483 -79.4525 239° Southwest 431 496 34,000  Level Washington Center
09:02AM 37.6817 -79.5778 236° Southwest 438 504 34,000  Level Washington Center
09:03AM 37.6119 -79.7208 238° Southwest 438 504 34,000  Level Washington Center
09:04AM 37.5539 -79.8356 237° Southwest 438 504 34,000  Level Washington Center
09:05AM 37.4883 -79.9708 239° Southwest 444 511 34,000  Level Washington Center
09:07AM 37.3742 -80.1922 237° Southwest 415 478 34,000  Level Atlanta Center
09:08AM 37.3114 -80.3206 238° Southwest 426 490 34,000  Level Atlanta Center
09:09AM 37.2483 -80.4461 238° Southwest 426 490 34,000  Level Atlanta Center
09:10AM 37.1892 -80.5608 237° Southwest 432 497 34,000  Level Atlanta Center
09:11AM 37.1261 -80.6886 238° Southwest 437 503 34,000  Level Atlanta Center
09:12AM 37.0606 -80.8136 237° Southwest 442 509 34,000  Level Atlanta Center
09:13AM 36.9892 -80.9517 237° Southwest 448 516 34,000  Level Atlanta Center
09:14AM 36.9214 -81.0814 237° Southwest 448 516 34,000  Level Atlanta Center
09:15AM 36.8556 -81.2111 238° Southwest 448 516 34,000  Level Atlanta Center
09:16AM 36.7917 -81.3353 237° Southwest 448 516 34,000  Level Atlanta Center
09:17AM 36.7358 -81.4486 238° Southwest 437 503 34,000  Level Atlanta Center
09:18AM 36.6694 -81.5722 236° Southwest 437 503 34,000  Level Atlanta Center
09:19AM 36.6033 -81.6983 237° Southwest 442 509 34,000  Level Atlanta Center
09:20AM 36.5389 -81.8244 238° Southwest 442 509 34,000  Level Atlanta Center
09:21AM 36.4661 -81.9606 236° Southwest 442 509 34,000  Level Atlanta Center
09:22AM 36.3975 -82.0914 237° Southwest 447 514 34,000  Level Atlanta Center
09:23AM 36.3283 -82.2167 236° Southwest 447 514 34,000  Level Atlanta Center
09:24AM 36.2633 -82.3419 237° Southwest 447 514 34,000  Level Atlanta Center
09:25AM 36.1942 -82.4692 236° Southwest 447 514 34,000  Level Atlanta Center
09:26AM 36.1269 -82.5942 236° Southwest 447 514 34,000  Level Atlanta Center
09:27AM 36.0617 -82.7211 238° Southwest 447 514 34,000  Level Atlanta Center
09:28AM 35.9919 -82.8481 236° Southwest 447 514 34,000  Level Atlanta Center
09:29AM 35.9242 -82.9694 235° Southwest 442 509 34,000  Level Atlanta Center
09:30AM 35.8564 -83.0958 237° Southwest 447 514 34,000  Level Atlanta Center
09:31AM 35.7906 -83.2194 237° Southwest 447 514 34,000  Level Atlanta Center
09:32AM 35.7247 -83.3431 237° Southwest 447 514 34,000  Level Atlanta Center
09:33AM 35.6544 -83.4661 235° Southwest 442 509 34,000  Level Atlanta Center
09:34AM 35.5881 -83.5892 236° Southwest 447 514 34,000  Level Atlanta Center
09:35AM 35.5175 -83.7147 235° Southwest 447 514 34,000  Level Atlanta Center
09:36AM 35.4511 -83.8347 236° Southwest 442 509 34,000  Level Atlanta Center
09:37AM 35.3822 -83.9597 236° Southwest 442 509 34,000  Level Atlanta Center
09:38AM 35.3114 -84.0819 235° Southwest 447 514 34,000  Level Atlanta Center
09:39AM 35.2444 -84.2042 236° Southwest 447 514 34,000  Level Atlanta Center
09:40AM 35.1756 -84.3283 236° Southwest 447 514 34,000  Level Atlanta Center
09:41AM 35.1064 -84.4500 235° Southwest 447 514 34,000  Level Atlanta Center
09:42AM 35.0392 -84.5714 236° Southwest 447 514 34,000  Level Atlanta Center
09:43AM 34.9697 -84.6928 235° Southwest 447 514 34,000  Level Atlanta Center
09:44AM 34.9000 -84.8164 236° Southwest 447 514 34,000  Level Atlanta Center
09:45AM 34.8303 -84.9369 235° Southwest 442 509 34,000  Level Atlanta Center
09:46AM 34.7606 -85.0603 235° Southwest 442 509 34,000  Level Atlanta Center
09:47AM 34.6886 -85.1831 235° Southwest 447 514 34,000  Level Atlanta Center
09:48AM 34.6183 -85.3058 235° Southwest 447 514 34,000  Level Atlanta Center
09:49AM 34.5503 -85.4258 235° Southwest 447 514 34,000  Level Atlanta Center
09:50AM 34.4864 -85.5333 234° Southwest 447 514 34,000  Level Atlanta Center
09:51AM 34.4161 -85.6553 235° Southwest 447 514 34,000  Level Atlanta Center
09:52AM 34.3411 -85.7872 235° Southwest 447 514 34,000  Level Atlanta Center
09:53AM 34.2664 -85.9039 232° Southwest 447 514 34,000  Level Atlanta Center
09:54AM 34.1936 -86.0253 234° Southwest 447 514 34,000  Level Atlanta Center
09:55AM 34.1206 -86.1467 234° Southwest 447 514 34,000  Level Atlanta Center
09:56AM 34.0475 -86.2675 234° Southwest 447 514 34,000  Level Atlanta Center
09:57AM 33.9742 -86.3908 234° Southwest 447 514 34,000  Level Atlanta Center
09:58AM 33.9031 -86.5117 235° Southwest 447 514 34,000  Level Atlanta Center
09:59AM 33.8294 -86.6319 234° Southwest 447 514 34,000  Level Atlanta Center
10:00AM 33.7603 -86.7497 235° Southwest 447 514 34,000  Level Atlanta Center
10:01AM 33.6867 -86.8697 234° Southwest 447 514 34,000 240 Level Atlanta Center
10:02AM 33.5986 -86.9692 223° Southwest 447 514 34,500 480 Climbing Atlanta Center
10:03AM 33.4869 -87.0203 201° Southwest 424 488 35,000 480 Climbing Atlanta Center
10:04AM 33.3769 -87.0761 203° Southwest 424 488 35,500 480 Climbing Atlanta Center
10:05AM 33.2650 -87.1319 203° Southwest 429 494 36,000 240 Climbing Atlanta Center
10:06AM 33.1531 -87.1850 202° Southwest 434 499 36,000  Level Atlanta Center
10:07AM 33.0389 -87.2428 203° Southwest 434 499 36,000  Level Atlanta Center
10:08AM 32.9433 -87.2961 205° Southwest 434 499 36,000  Level Atlanta Center
10:09AM 32.8314 -87.3514 203° Southwest 434 499 36,000  Level Atlanta Center
10:10AM 32.7192 -87.4039 201° Southwest 440 506 36,000  Level Atlanta Center
10:11AM 32.6072 -87.4589 202° Southwest 440 506 36,000  Level Atlanta Center
10:12AM 32.4969 -87.5161 204° Southwest 440 506 36,000  Level Atlanta Center
10:13AM 32.3869 -87.5733 204° Southwest 435 501 36,000  Level Atlanta Center
10:14AM 32.2767 -87.6278 203° Southwest 435 501 36,000  Level Atlanta Center
10:15AM 32.1667 -87.6800 202° Southwest 435 501 36,000  Level Atlanta Center
10:17AM 31.9469 -87.7772 201° Southwest 424 488 36,000  Level Houston Center
10:18AM 31.8383 -87.8306 203° Southwest 423 487 36,000  Level Houston Center
10:19AM 31.7286 -87.8828 202° Southwest 423 487 36,000  Level Houston Center
10:20AM 31.5969 -87.9461 202° Southwest 426 490 36,000  Level Houston Center
10:21AM 31.4878 -87.9994 203° Southwest 425 489 36,000  Level Houston Center
10:22AM 31.3775 -88.0514 202° Southwest 426 490 36,000  Level Houston Center
10:23AM 31.2686 -88.1039 202° Southwest 424 488 36,000  Level Houston Center
10:24AM 31.1511 -88.1600 202° Southwest 420 483 36,000 -420 Level Houston Center
10:25AM 31.0367 -88.2114 201° Southwest 436 502 35,200 -540 Descending Houston Center
10:26AM 30.9231 -88.2653 202° Southwest 439 505 35,000 -120 Descending Houston Center
10:27AM 30.8125 -88.3181 202° Southwest 432 497 35,000  Level Houston Center
10:28AM 30.6969 -88.4181 217° Southwest 444 511 35,000 -780 Level Houston Center
10:29AM 30.6383 -88.5536 243° Southwest 462 532 33,400 -2,100 Descending Houston Center
10:30AM 30.5797 -88.6861 243° Southwest 462 532 30,700 -2,640 Descending Houston Center
10:31AM 30.5208 -88.8181 243° Southwest 460 529 28,000 -2,700 Descending Houston Center
10:32AM 30.4656 -88.9450 243° Southwest 445 512 25,200 -1,920 Descending Houston Center
10:33AM 30.4128 -89.0614 242° Southwest 425 489 24,000 -1,200 Descending Houston Center
10:34AM 30.3606 -89.2008 247° West 400 460 22,800 -1,860 Descending Houston Center
10:35AM 30.3164 -89.3225 247° West 395 455 20,200 -2,580 Descending Houston Center
10:36AM 30.2708 -89.4428 246° West 382 440 17,500 -2,700 Descending Houston Center
10:37AM 30.2308 -89.5531 247° West 372 428 14,800 -2,700 Descending Houston Center
10:38AM 30.1950 -89.6606 249° West 359 413 12,100 -2,340 Descending Houston Center
10:39AM 30.1589 -89.7633 248° West 344 396 10,100 -1,740 Descending Houston Center
10:40AM 30.1264 -89.8536 247° West 296 341 8,600 -1,680 Descending Houston Center
10:41AM 30.0919 -89.9489 247° West 293 337 6,700 -1,800 Descending Houston Center
10:42AM 30.0592 -90.0344 246° West 293 337 5,000 -840 Descending Houston Center
10:43AM 30.0283 -90.1172 247° West 287 330 5,000  Level Houston Center
10:44AM 30.0372 -90.2058 277° West 283 326 5,000  Level Houston Center
10:45AM 30.0542 -90.2794 285° West 247 284 5,000  Level Houston Center
10:46AM 30.0731 -90.3533 286° West 235 270 5,000 -480 Level Houston Center
10:47AM 30.0942 -90.4269 288° West 231 266 4,100 -1,020 Descending Houston Center
10:48AM 30.0597 -90.4667 225° Southwest 196 226 2,900 -1,080 Descending Houston Center
10:49AM 30.0356 -90.4269 125° Southeast 155 178 2,000 -780 Descending Houston Center
10:50AM 30.0194 -90.3794 111° Southeast 169 194 1,500 -540 Descending Houston Center